KTOA/TOA METAR and TAF weather

Enter ICAO airport designator
Station Type Date Time Source
KTOA METAR 2020/07/14 22:47 UTC NOAA

KTOA 142247Z 27016KT 10SM FEW009 23/18 A2993


Station Type Date Time Source
KTOA Decoded METAR 2020/07/14 22:47 UTC NOAA

Torrance, Zamperini Field Airport, CA, United States (KTOA) 33-48N 118-20W
Jul 14, 2020 - 06:47 PM EDT / 2020.07.14 2247 UTC
Wind: from the W (270 degrees) at 18 MPH (16 KT):0
Visibility: 10 mile(s):0
Sky conditions: mostly clear
Temperature: 73 F (23 C)
Dew Point: 64 F (18 C)
Relative Humidity: 73%
Pressure (altimeter): 29.93 in. Hg (1013 hPa)
ob: KTOA 142247Z 27016KT 10SM FEW009 23/18 A2993
cycle: 23

Station Type Date Time Source
KTOA TAF UTC NOAA

Error!

Example: see airport list